sensor_id;sensor_type;location;lat;lon;timestamp;temperature;humidity
1377;DHT22;682;52.502;13.488;2023-03-30T00:00:54;10.80;1.00
1377;DHT22;682;52.502;13.488;2023-03-30T00:03:21;10.80;1.00
1377;DHT22;682;52.502;13.488;2023-03-30T00:05:49;10.80;1.00
1377;DHT22;682;52.502;13.488;2023-03-30T00:08:17;10.70;1.00
1377;DHT22;682;52.502;13.488;2023-03-30T00:10:44;10.60;1.00
1377;DHT22;682;52.502;13.488;2023-03-30T00:13:13;10.60;1.00
1377;DHT22;682;52.502;13.488;2023-03-30T00:15:41;10.60;1.00
1377;DHT22;682;52.502;13.488;2023-03-30T00:18:08;10.70;1.00
1377;DHT22;682;52.502;13.488;2023-03-30T00:20:35;10.60;1.00
1377;DHT22;682;52.502;13.488;2023-03-30T00:23:07;10.60;1.00
1377;DHT22;682;52.502;13.488;2023-03-30T00:25:34;10.60;1.00
1377;DHT22;682;52.502;13.488;2023-03-30T00:28:01;10.50;1.00
1377;DHT22;682;52.502;13.488;2023-03-30T00:30:30;10.50;1.00
1377;DHT22;682;52.502;13.488;2023-03-30T00:32:57;10.50;1.00
1377;DHT22;682;52.502;13.488;2023-03-30T00:35:24;10.40;1.00
1377;DHT22;682;52.502;13.488;2023-03-30T00:37:55;10.20;1.00
1377;DHT22;682;52.502;13.488;2023-03-30T00:40:22;10.20;1.00
1377;DHT22;682;52.502;13.488;2023-03-30T00:42:49;10.30;1.00
1377;DHT22;682;52.502;13.488;2023-03-30T00:45:20;10.20;1.00
1377;DHT22;682;52.502;13.488;2023-03-30T00:48:00;10.20;1.00
1377;DHT22;682;52.502;13.488;2023-03-30T00:50:32;10.00;1.00
1377;DHT22;682;52.502;13.488;2023-03-30T00:53:03;10.00;1.00
1377;DHT22;682;52.502;13.488;2023-03-30T00:55:34;9.90;1.00
1377;DHT22;682;52.502;13.488;2023-03-30T00:58:03;9.90;1.00
1377;DHT22;682;52.502;13.488;2023-03-30T01:00:32;9.80;1.00
1377;DHT22;682;52.502;13.488;2023-03-30T01:03:05;9.70;1.00
1377;DHT22;682;52.502;13.488;2023-03-30T01:05:36;9.70;1.00
1377;DHT22;682;52.502;13.488;2023-03-30T01:08:06;9.80;1.00
1377;DHT22;682;52.502;13.488;2023-03-30T01:10:33;9.90;1.00
1377;DHT22;682;52.502;13.488;2023-03-30T01:13:00;9.80;1.00
1377;DHT22;682;52.502;13.488;2023-03-30T01:15:31;9.70;1.00
1377;DHT22;682;52.502;13.488;2023-03-30T01:18:14;9.70;1.00
1377;DHT22;682;52.502;13.488;2023-03-30T01:21:16;9.70;1.00
1377;DHT22;682;52.502;13.488;2023-03-30T01:27:17;9.80;1.00
1377;DHT22;682;52.502;13.488;2023-03-30T01:30:07;9.70;1.00
1377;DHT22;682;52.502;13.488;2023-03-30T01:33:02;9.80;1.00
1377;DHT22;682;52.502;13.488;2023-03-30T01:36:05;9.80;1.00
1377;DHT22;682;52.502;13.488;2023-03-30T01:39:09;9.80;1.00
1377;DHT22;682;52.502;13.488;2023-03-30T01:41:46;9.60;1.00
1377;DHT22;682;52.502;13.488;2023-03-30T01:44:26;9.60;1.00
1377;DHT22;682;52.502;13.488;2023-03-30T01:46:58;9.50;1.00
1377;DHT22;682;52.502;13.488;2023-03-30T01:49:28;9.50;1.00
1377;DHT22;682;52.502;13.488;2023-03-30T01:52:03;9.50;1.00
1377;DHT22;682;52.502;13.488;2023-03-30T01:54:37;9.40;1.00
1377;DHT22;682;52.502;13.488;2023-03-30T01:57:09;9.30;1.00
1377;DHT22;682;52.502;13.488;2023-03-30T01:59:40;9.30;1.00
1377;DHT22;682;52.502;13.488;2023-03-30T02:02:10;9.30;1.00
1377;DHT22;682;52.502;13.488;2023-03-30T02:04:41;9.30;1.00
1377;DHT22;682;52.502;13.488;2023-03-30T02:07:13;9.30;1.00
1377;DHT22;682;52.502;13.488;2023-03-30T02:09:44;9.30;1.00
1377;DHT22;682;52.502;13.488;2023-03-30T02:12:12;9.30;1.00
1377;DHT22;682;52.502;13.488;2023-03-30T02:14:40;9.30;1.00
1377;DHT22;682;52.502;13.488;2023-03-30T02:17:12;9.40;1.00
1377;DHT22;682;52.502;13.488;2023-03-30T02:19:43;9.40;1.00
1377;DHT22;682;52.502;13.488;2023-03-30T02:22:13;9.40;1.00
1377;DHT22;682;52.502;13.488;2023-03-30T02:24:44;9.40;1.00
1377;DHT22;682;52.502;13.488;2023-03-30T02:27:12;9.40;1.00
1377;DHT22;682;52.502;13.488;2023-03-30T02:29:42;9.50;1.00
1377;DHT22;682;52.502;13.488;2023-03-30T02:32:15;9.40;1.00
1377;DHT22;682;52.502;13.488;2023-03-30T02:34:54;9.50;1.00
1377;DHT22;682;52.502;13.488;2023-03-30T02:37:46;9.40;1.00
1377;DHT22;682;52.502;13.488;2023-03-30T02:40:35;9.40;1.00
1377;DHT22;682;52.502;13.488;2023-03-30T02:43:21;9.40;1.00
1377;DHT22;682;52.502;13.488;2023-03-30T02:45:54;9.40;1.00
1377;DHT22;682;52.502;13.488;2023-03-30T02:48:37;9.30;1.00
1377;DHT22;682;52.502;13.488;2023-03-30T02:51:21;9.30;1.00
1377;DHT22;682;52.502;13.488;2023-03-30T02:53:55;9.30;1.00
1377;DHT22;682;52.502;13.488;2023-03-30T02:56:31;9.20;1.00
1377;DHT22;682;52.502;13.488;2023-03-30T02:59:06;9.20;1.00
1377;DHT22;682;52.502;13.488;2023-03-30T03:01:36;9.20;1.00
1377;DHT22;682;52.502;13.488;2023-03-30T03:04:07;9.20;1.00
1377;DHT22;682;52.502;13.488;2023-03-30T03:06:41;9.20;1.00
1377;DHT22;682;52.502;13.488;2023-03-30T03:09:08;9.20;1.00
1377;DHT22;682;52.502;13.488;2023-03-30T03:11:37;9.10;1.00
1377;DHT22;682;52.502;13.488;2023-03-30T03:14:04;9.10;1.00
1377;DHT22;682;52.502;13.488;2023-03-30T03:16:32;9.10;1.00
1377;DHT22;682;52.502;13.488;2023-03-30T03:18:59;9.10;1.00
1377;DHT22;682;52.502;13.488;2023-03-30T03:21:26;9.10;1.00
1377;DHT22;682;52.502;13.488;2023-03-30T03:23:53;9.10;1.00
1377;DHT22;682;52.502;13.488;2023-03-30T03:26:21;9.20;1.00
1377;DHT22;682;52.502;13.488;2023-03-30T03:28:50;9.10;1.00
1377;DHT22;682;52.502;13.488;2023-03-30T03:31:17;9.10;1.00
1377;DHT22;682;52.502;13.488;2023-03-30T03:33:44;9.10;1.00
1377;DHT22;682;52.502;13.488;2023-03-30T03:36:11;9.10;1.00
1377;DHT22;682;52.502;13.488;2023-03-30T03:38:39;9.10;1.00
1377;DHT22;682;52.502;13.488;2023-03-30T03:41:07;9.20;1.00
1377;DHT22;682;52.502;13.488;2023-03-30T03:43:34;9.20;1.00
1377;DHT22;682;52.502;13.488;2023-03-30T03:46:06;9.20;1.00
1377;DHT22;682;52.502;13.488;2023-03-30T03:48:33;9.20;1.00
1377;DHT22;682;52.502;13.488;2023-03-30T03:51:02;9.30;1.00
1377;DHT22;682;52.502;13.488;2023-03-30T03:53:30;9.30;1.00
1377;DHT22;682;52.502;13.488;2023-03-30T03:55:58;9.30;1.00
1377;DHT22;682;52.502;13.488;2023-03-30T03:58:26;9.30;1.00
1377;DHT22;682;52.502;13.488;2023-03-30T04:00:57;9.20;1.00
1377;DHT22;682;52.502;13.488;2023-03-30T04:03:26;9.20;1.00
1377;DHT22;682;52.502;13.488;2023-03-30T04:05:53;9.20;1.00
1377;DHT22;682;52.502;13.488;2023-03-30T04:08:20;9.20;1.00
1377;DHT22;682;52.502;13.488;2023-03-30T04:10:47;9.20;1.00
1377;DHT22;682;52.502;13.488;2023-03-30T04:13:14;9.20;1.00
1377;DHT22;682;52.502;13.488;2023-03-30T04:15:43;9.30;1.00
1377;DHT22;682;52.502;13.488;2023-03-30T04:18:11;9.30;1.00
1377;DHT22;682;52.502;13.488;2023-03-30T04:20:42;9.40;1.00
1377;DHT22;682;52.502;13.488;2023-03-30T04:23:09;9.40;1.00
1377;DHT22;682;52.502;13.488;2023-03-30T04:25:46;9.40;1.00
1377;DHT22;682;52.502;13.488;2023-03-30T04:28:13;9.50;1.00
1377;DHT22;682;52.502;13.488;2023-03-30T04:30:46;9.60;1.00
1377;DHT22;682;52.502;13.488;2023-03-30T04:33:13;9.50;1.00
1377;DHT22;682;52.502;13.488;2023-03-30T04:35:42;9.50;1.00
1377;DHT22;682;52.502;13.488;2023-03-30T04:38:09;9.50;1.00
1377;DHT22;682;52.502;13.488;2023-03-30T04:40:38;9.60;1.00
1377;DHT22;682;52.502;13.488;2023-03-30T04:43:05;9.60;1.00
1377;DHT22;682;52.502;13.488;2023-03-30T04:45:33;9.60;1.00
1377;DHT22;682;52.502;13.488;2023-03-30T04:48:02;9.60;1.00
1377;DHT22;682;52.502;13.488;2023-03-30T04:50:29;9.60;1.00
1377;DHT22;682;52.502;13.488;2023-03-30T04:52:59;9.50;1.00
1377;DHT22;682;52.502;13.488;2023-03-30T04:55:27;9.60;1.00
1377;DHT22;682;52.502;13.488;2023-03-30T04:57:55;9.50;1.00
1377;DHT22;682;52.502;13.488;2023-03-30T05:00:23;9.40;1.00
1377;DHT22;682;52.502;13.488;2023-03-30T05:02:53;9.40;1.00
1377;DHT22;682;52.502;13.488;2023-03-30T05:05:20;9.80;1.00
1377;DHT22;682;52.502;13.488;2023-03-30T05:07:47;9.80;1.00
1377;DHT22;682;52.502;13.488;2023-03-30T05:10:18;9.70;1.00
1377;DHT22;682;52.502;13.488;2023-03-30T05:12:46;9.70;1.00
1377;DHT22;682;52.502;13.488;2023-03-30T05:15:13;9.60;1.00
1377;DHT22;682;52.502;13.488;2023-03-30T05:17:40;9.60;1.00
1377;DHT22;682;52.502;13.488;2023-03-30T05:20:09;9.70;1.00
1377;DHT22;682;52.502;13.488;2023-03-30T05:22:39;9.70;1.00
1377;DHT22;682;52.502;13.488;2023-03-30T05:25:07;9.70;1.00
1377;DHT22;682;52.502;13.488;2023-03-30T05:27:36;9.70;1.00
1377;DHT22;682;52.502;13.488;2023-03-30T05:30:04;9.80;1.00
1377;DHT22;682;52.502;13.488;2023-03-30T05:32:32;9.80;1.00
1377;DHT22;682;52.502;13.488;2023-03-30T05:35:00;9.90;1.00
1377;DHT22;682;52.502;13.488;2023-03-30T05:37:27;10.00;1.00
1377;DHT22;682;52.502;13.488;2023-03-30T05:39:55;10.00;1.00
1377;DHT22;682;52.502;13.488;2023-03-30T05:42:22;10.00;1.00
1377;DHT22;682;52.502;13.488;2023-03-30T05:44:51;10.10;1.00
1377;DHT22;682;52.502;13.488;2023-03-30T05:47:18;10.20;1.00
1377;DHT22;682;52.502;13.488;2023-03-30T05:49:45;10.20;1.00
1377;DHT22;682;52.502;13.488;2023-03-30T05:52:12;10.30;1.00
1377;DHT22;682;52.502;13.488;2023-03-30T05:54:39;10.30;1.00
1377;DHT22;682;52.502;13.488;2023-03-30T05:57:07;10.30;1.00
1377;DHT22;682;52.502;13.488;2023-03-30T05:59:34;10.30;1.00
1377;DHT22;682;52.502;13.488;2023-03-30T06:02:03;10.30;1.00
1377;DHT22;682;52.502;13.488;2023-03-30T06:04:31;10.30;1.00
1377;DHT22;682;52.502;13.488;2023-03-30T06:06:58;10.40;1.00
1377;DHT22;682;52.502;13.488;2023-03-30T06:09:26;10.30;1.00
1377;DHT22;682;52.502;13.488;2023-03-30T06:11:53;10.40;1.00
1377;DHT22;682;52.502;13.488;2023-03-30T06:14:20;10.40;1.00
1377;DHT22;682;52.502;13.488;2023-03-30T06:16:47;10.40;1.00
1377;DHT22;682;52.502;13.488;2023-03-30T06:19:15;10.50;1.00
1377;DHT22;682;52.502;13.488;2023-03-30T06:21:45;10.50;1.00
1377;DHT22;682;52.502;13.488;2023-03-30T06:24:13;10.50;1.00
1377;DHT22;682;52.502;13.488;2023-03-30T06:26:40;10.60;1.00
1377;DHT22;682;52.502;13.488;2023-03-30T06:29:07;10.60;1.00
1377;DHT22;682;52.502;13.488;2023-03-30T06:31:34;10.60;1.00
1377;DHT22;682;52.502;13.488;2023-03-30T06:34:01;10.80;1.00
1377;DHT22;682;52.502;13.488;2023-03-30T06:36:30;10.90;1.00
1377;DHT22;682;52.502;13.488;2023-03-30T06:38:57;10.80;1.00
1377;DHT22;682;52.502;13.488;2023-03-30T06:41:24;10.90;1.00
1377;DHT22;682;52.502;13.488;2023-03-30T06:43:51;11.00;1.00
1377;DHT22;682;52.502;13.488;2023-03-30T06:46:18;11.30;1.00
1377;DHT22;682;52.502;13.488;2023-03-30T06:48:45;11.30;1.00
1377;DHT22;682;52.502;13.488;2023-03-30T06:51:13;11.40;1.00
1377;DHT22;682;52.502;13.488;2023-03-30T06:53:46;11.50;1.00
1377;DHT22;682;52.502;13.488;2023-03-30T06:56:13;11.50;1.00
1377;DHT22;682;52.502;13.488;2023-03-30T06:58:40;11.60;1.00
1377;DHT22;682;52.502;13.488;2023-03-30T07:01:09;11.60;1.00
1377;DHT22;682;52.502;13.488;2023-03-30T07:03:36;11.60;1.00
1377;DHT22;682;52.502;13.488;2023-03-30T07:06:07;11.60;1.00
1377;DHT22;682;52.502;13.488;2023-03-30T07:08:35;11.60;1.00
1377;DHT22;682;52.502;13.488;2023-03-30T07:11:07;11.30;1.00
1377;DHT22;682;52.502;13.488;2023-03-30T07:13:34;11.20;1.00
1377;DHT22;682;52.502;13.488;2023-03-30T07:16:01;11.30;1.00
1377;DHT22;682;52.502;13.488;2023-03-30T07:18:28;11.30;1.00
1377;DHT22;682;52.502;13.488;2023-03-30T07:20:57;11.30;1.00
1377;DHT22;682;52.502;13.488;2023-03-30T07:23:24;11.30;1.00
1377;DHT22;682;52.502;13.488;2023-03-30T07:25:52;11.50;1.00
1377;DHT22;682;52.502;13.488;2023-03-30T07:28:20;11.60;1.00
1377;DHT22;682;52.502;13.488;2023-03-30T07:30:47;11.80;1.00
1377;DHT22;682;52.502;13.488;2023-03-30T07:33:17;11.90;1.00
1377;DHT22;682;52.502;13.488;2023-03-30T07:35:47;12.10;1.00
1377;DHT22;682;52.502;13.488;2023-03-30T07:38:14;12.30;1.00
1377;DHT22;682;52.502;13.488;2023-03-30T07:40:41;12.40;1.00
1377;DHT22;682;52.502;13.488;2023-03-30T07:43:10;12.60;1.00
1377;DHT22;682;52.502;13.488;2023-03-30T07:45:40;12.70;1.00
1377;DHT22;682;52.502;13.488;2023-03-30T07:48:09;12.80;1.00
1377;DHT22;682;52.502;13.488;2023-03-30T07:50:36;13.00;1.00
1377;DHT22;682;52.502;13.488;2023-03-30T07:53:03;13.30;1.00
1377;DHT22;682;52.502;13.488;2023-03-30T07:55:30;13.70;1.00
1377;DHT22;682;52.502;13.488;2023-03-30T07:57:57;13.80;1.00
1377;DHT22;682;52.502;13.488;2023-03-30T08:00:24;13.80;1.00
1377;DHT22;682;52.502;13.488;2023-03-30T08:02:53;13.80;1.00
1377;DHT22;682;52.502;13.488;2023-03-30T08:05:20;13.90;1.00
1377;DHT22;682;52.502;13.488;2023-03-30T08:07:47;13.80;1.00
1377;DHT22;682;52.502;13.488;2023-03-30T08:10:20;13.60;1.00
1377;DHT22;682;52.502;13.488;2023-03-30T08:12:47;13.50;1.00
1377;DHT22;682;52.502;13.488;2023-03-30T08:15:14;13.60;1.00
1377;DHT22;682;52.502;13.488;2023-03-30T08:17:41;13.70;1.00
1377;DHT22;682;52.502;13.488;2023-03-30T08:20:10;13.80;1.00
1377;DHT22;682;52.502;13.488;2023-03-30T08:22:37;13.90;1.00
1377;DHT22;682;52.502;13.488;2023-03-30T08:25:05;14.10;1.00
1377;DHT22;682;52.502;13.488;2023-03-30T08:27:32;14.30;1.00
1377;DHT22;682;52.502;13.488;2023-03-30T08:29:59;14.50;1.00
1377;DHT22;682;52.502;13.488;2023-03-30T08:32:26;14.70;1.00
1377;DHT22;682;52.502;13.488;2023-03-30T08:34:55;14.90;1.00
1377;DHT22;682;52.502;13.488;2023-03-30T08:37:24;15.00;1.00
1377;DHT22;682;52.502;13.488;2023-03-30T08:39:51;15.20;1.00
1377;DHT22;682;52.502;13.488;2023-03-30T08:42:38;15.40;1.00
1377;DHT22;682;52.502;13.488;2023-03-30T08:45:12;15.70;1.00
1377;DHT22;682;52.502;13.488;2023-03-30T08:47:44;15.90;1.00
1377;DHT22;682;52.502;13.488;2023-03-30T08:50:15;16.20;1.00
1377;DHT22;682;52.502;13.488;2023-03-30T08:52:45;16.30;1.00
1377;DHT22;682;52.502;13.488;2023-03-30T08:55:23;16.60;1.00
1377;DHT22;682;52.502;13.488;2023-03-30T08:57:57;17.00;1.00
1377;DHT22;682;52.502;13.488;2023-03-30T09:00:35;17.50;1.00
1377;DHT22;682;52.502;13.488;2023-03-30T09:03:12;17.90;1.00
1377;DHT22;682;52.502;13.488;2023-03-30T09:05:47;17.90;1.00
1377;DHT22;682;52.502;13.488;2023-03-30T09:08:19;18.00;1.00
1377;DHT22;682;52.502;13.488;2023-03-30T09:10:51;18.20;1.00
1377;DHT22;682;52.502;13.488;2023-03-30T09:13:22;18.40;1.00
1377;DHT22;682;52.502;13.488;2023-03-30T09:15:53;18.60;1.00
1377;DHT22;682;52.502;13.488;2023-03-30T09:18:27;18.70;1.00
1377;DHT22;682;52.502;13.488;2023-03-30T09:20:58;18.80;1.00
1377;DHT22;682;52.502;13.488;2023-03-30T09:23:28;18.80;1.00
1377;DHT22;682;52.502;13.488;2023-03-30T09:26:04;18.80;1.00
1377;DHT22;682;52.502;13.488;2023-03-30T09:28:39;19.00;1.00
1377;DHT22;682;52.502;13.488;2023-03-30T09:31:12;19.10;1.00
1377;DHT22;682;52.502;13.488;2023-03-30T09:33:44;19.30;1.00
1377;DHT22;682;52.502;13.488;2023-03-30T09:36:16;19.40;1.00
1377;DHT22;682;52.502;13.488;2023-03-30T09:38:45;19.50;1.00
1377;DHT22;682;52.502;13.488;2023-03-30T09:41:23;19.30;1.00
1377;DHT22;682;52.502;13.488;2023-03-30T09:43:57;19.30;1.00
1377;DHT22;682;52.502;13.488;2023-03-30T09:46:25;19.50;1.00
1377;DHT22;682;52.502;13.488;2023-03-30T09:48:53;19.50;1.00
1377;DHT22;682;52.502;13.488;2023-03-30T09:51:52;18.90;1.00
1377;DHT22;682;52.502;13.488;2023-03-30T09:54:22;18.30;1.00
1377;DHT22;682;52.502;13.488;2023-03-30T09:56:53;18.20;1.00
1377;DHT22;682;52.502;13.488;2023-03-30T09:59:28;18.20;1.00
1377;DHT22;682;52.502;13.488;2023-03-30T10:02:19;18.40;1.00
1377;DHT22;682;52.502;13.488;2023-03-30T10:05:13;18.60;1.00
1377;DHT22;682;52.502;13.488;2023-03-30T10:07:42;18.50;1.00
1377;DHT22;682;52.502;13.488;2023-03-30T10:10:30;18.20;1.00
1377;DHT22;682;52.502;13.488;2023-03-30T10:13:03;18.00;1.00
1377;DHT22;682;52.502;13.488;2023-03-30T10:15:31;17.80;1.00
1377;DHT22;682;52.502;13.488;2023-03-30T10:18:05;17.80;1.00
1377;DHT22;682;52.502;13.488;2023-03-30T10:20:40;17.60;1.00
1377;DHT22;682;52.502;13.488;2023-03-30T10:23:14;17.50;1.00
1377;DHT22;682;52.502;13.488;2023-03-30T10:25:46;17.30;1.00
1377;DHT22;682;52.502;13.488;2023-03-30T10:28:17;17.20;1.00
1377;DHT22;682;52.502;13.488;2023-03-30T10:30:50;17.00;1.00
1377;DHT22;682;52.502;13.488;2023-03-30T10:33:19;17.00;1.00
1377;DHT22;682;52.502;13.488;2023-03-30T10:35:50;17.10;1.00
1377;DHT22;682;52.502;13.488;2023-03-30T10:38:18;17.10;1.00
1377;DHT22;682;52.502;13.488;2023-03-30T10:40:50;17.20;1.00
1377;DHT22;682;52.502;13.488;2023-03-30T10:43:24;17.20;1.00
1377;DHT22;682;52.502;13.488;2023-03-30T10:45:54;17.20;1.00
1377;DHT22;682;52.502;13.488;2023-03-30T10:48:29;17.30;1.00
1377;DHT22;682;52.502;13.488;2023-03-30T10:51:06;17.40;1.00
1377;DHT22;682;52.502;13.488;2023-03-30T10:53:43;17.50;1.00
1377;DHT22;682;52.502;13.488;2023-03-30T10:56:22;17.80;1.00
1377;DHT22;682;52.502;13.488;2023-03-30T11:01:48;17.80;1.00
1377;DHT22;682;52.502;13.488;2023-03-30T11:04:23;17.90;1.00
1377;DHT22;682;52.502;13.488;2023-03-30T11:06:54;18.30;1.00
1377;DHT22;682;52.502;13.488;2023-03-30T11:09:33;19.00;1.00
1377;DHT22;682;52.502;13.488;2023-03-30T11:12:04;19.80;1.00
1377;DHT22;682;52.502;13.488;2023-03-30T11:14:41;20.30;1.00
1377;DHT22;682;52.502;13.488;2023-03-30T11:17:11;19.90;1.00
1377;DHT22;682;52.502;13.488;2023-03-30T11:19:47;19.40;1.00
1377;DHT22;682;52.502;13.488;2023-03-30T11:22:25;18.90;1.00
1377;DHT22;682;52.502;13.488;2023-03-30T11:24:57;18.50;1.00
1377;DHT22;682;52.502;13.488;2023-03-30T11:27:32;18.40;1.00
1377;DHT22;682;52.502;13.488;2023-03-30T11:30:10;18.60;1.00
1377;DHT22;682;52.502;13.488;2023-03-30T11:32:45;19.00;1.00
1377;DHT22;682;52.502;13.488;2023-03-30T11:35:17;19.40;1.00
1377;DHT22;682;52.502;13.488;2023-03-30T11:37:51;19.40;1.00
1377;DHT22;682;52.502;13.488;2023-03-30T11:40:25;19.40;1.00
1377;DHT22;682;52.502;13.488;2023-03-30T11:42:54;19.40;1.00
1377;DHT22;682;52.502;13.488;2023-03-30T11:45:39;19.20;1.00
1377;DHT22;682;52.502;13.488;2023-03-30T11:48:24;19.60;1.00
1377;DHT22;682;52.502;13.488;2023-03-30T11:53:52;23.00;1.00
1377;DHT22;682;52.502;13.488;2023-03-30T11:56:36;24.60;1.00
1377;DHT22;682;52.502;13.488;2023-03-30T11:59:23;25.30;1.00
1377;DHT22;682;52.502;13.488;2023-03-30T12:02:06;24.70;1.00
1377;DHT22;682;52.502;13.488;2023-03-30T12:04:37;25.20;1.00
1377;DHT22;682;52.502;13.488;2023-03-30T12:07:15;26.30;1.00
1377;DHT22;682;52.502;13.488;2023-03-30T12:09:49;26.90;1.00
1377;DHT22;682;52.502;13.488;2023-03-30T12:12:23;26.20;1.00
1377;DHT22;682;52.502;13.488;2023-03-30T12:15:14;26.40;1.00
1377;DHT22;682;52.502;13.488;2023-03-30T12:18:01;27.60;1.00
1377;DHT22;682;52.502;13.488;2023-03-30T12:20:37;28.70;1.00
1377;DHT22;682;52.502;13.488;2023-03-30T12:26:24;30.00;1.00
1377;DHT22;682;52.502;13.488;2023-03-30T12:28:56;30.40;1.00
1377;DHT22;682;52.502;13.488;2023-03-30T12:34:32;31.80;1.00
1377;DHT22;682;52.502;13.488;2023-03-30T12:37:03;32.00;1.00
1377;DHT22;682;52.502;13.488;2023-03-30T12:39:40;31.70;1.00
1377;DHT22;682;52.502;13.488;2023-03-30T12:42:21;32.10;1.00
1377;DHT22;682;52.502;13.488;2023-03-30T12:45:20;30.30;1.00
1377;DHT22;682;52.502;13.488;2023-03-30T12:48:09;30.00;1.00
1377;DHT22;682;52.502;13.488;2023-03-30T12:50:55;29.70;1.00
1377;DHT22;682;52.502;13.488;2023-03-30T12:53:55;29.10;1.00
1377;DHT22;682;52.502;13.488;2023-03-30T12:56:29;27.90;1.00
1377;DHT22;682;52.502;13.488;2023-03-30T13:02:24;27.10;1.00
1377;DHT22;682;52.502;13.488;2023-03-30T13:04:57;29.70;1.00
1377;DHT22;682;52.502;13.488;2023-03-30T13:07:27;31.00;1.00
1377;DHT22;682;52.502;13.488;2023-03-30T13:09:58;30.80;1.00
1377;DHT22;682;52.502;13.488;2023-03-30T13:12:34;29.90;1.00
1377;DHT22;682;52.502;13.488;2023-03-30T13:15:19;28.40;1.00
1377;DHT22;682;52.502;13.488;2023-03-30T13:17:59;27.90;1.00
1377;DHT22;682;52.502;13.488;2023-03-30T13:20:31;27.40;1.00
1377;DHT22;682;52.502;13.488;2023-03-30T13:23:05;26.30;1.00
1377;DHT22;682;52.502;13.488;2023-03-30T13:25:59;25.00;1.00
1377;DHT22;682;52.502;13.488;2023-03-30T13:28:54;24.90;1.00
1377;DHT22;682;52.502;13.488;2023-03-30T13:31:49;24.70;1.00
1377;DHT22;682;52.502;13.488;2023-03-30T13:34:31;24.20;1.00
1377;DHT22;682;52.502;13.488;2023-03-30T13:37:09;23.00;1.00
1377;DHT22;682;52.502;13.488;2023-03-30T13:39:46;21.90;1.00
1377;DHT22;682;52.502;13.488;2023-03-30T13:42:29;21.50;1.00
1377;DHT22;682;52.502;13.488;2023-03-30T13:45:05;21.20;1.00
1377;DHT22;682;52.502;13.488;2023-03-30T13:47:46;21.00;1.00
1377;DHT22;682;52.502;13.488;2023-03-30T13:50:22;20.70;1.00
1377;DHT22;682;52.502;13.488;2023-03-30T13:52:50;20.50;1.00
1377;DHT22;682;52.502;13.488;2023-03-30T13:55:23;20.10;1.00
1377;DHT22;682;52.502;13.488;2023-03-30T13:57:55;19.70;1.00
1377;DHT22;682;52.502;13.488;2023-03-30T14:00:34;19.30;1.00
1377;DHT22;682;52.502;13.488;2023-03-30T14:03:29;18.50;1.00
1377;DHT22;682;52.502;13.488;2023-03-30T14:06:04;17.50;1.00
1377;DHT22;682;52.502;13.488;2023-03-30T14:08:35;16.20;1.00
1377;DHT22;682;52.502;13.488;2023-03-30T14:11:13;14.90;1.00
1377;DHT22;682;52.502;13.488;2023-03-30T14:13:42;14.10;1.00
1377;DHT22;682;52.502;13.488;2023-03-30T14:16:11;13.60;1.00
1377;DHT22;682;52.502;13.488;2023-03-30T14:18:43;13.20;1.00
1377;DHT22;682;52.502;13.488;2023-03-30T14:21:14;12.90;1.00
1377;DHT22;682;52.502;13.488;2023-03-30T14:23:45;12.80;1.00
1377;DHT22;682;52.502;13.488;2023-03-30T14:26:21;12.70;1.00
1377;DHT22;682;52.502;13.488;2023-03-30T14:28:53;12.70;1.00
1377;DHT22;682;52.502;13.488;2023-03-30T14:31:20;12.60;1.00
1377;DHT22;682;52.502;13.488;2023-03-30T14:33:48;12.60;1.00
1377;DHT22;682;52.502;13.488;2023-03-30T14:36:17;12.80;1.00
1377;DHT22;682;52.502;13.488;2023-03-30T14:38:46;12.80;1.00
1377;DHT22;682;52.502;13.488;2023-03-30T14:41:19;12.70;1.00
1377;DHT22;682;52.502;13.488;2023-03-30T14:43:51;12.70;1.00
1377;DHT22;682;52.502;13.488;2023-03-30T14:46:19;12.70;1.00
1377;DHT22;682;52.502;13.488;2023-03-30T14:48:48;12.70;1.00
1377;DHT22;682;52.502;13.488;2023-03-30T14:51:21;12.70;1.00
1377;DHT22;682;52.502;13.488;2023-03-30T14:53:52;12.60;1.00
1377;DHT22;682;52.502;13.488;2023-03-30T14:56:22;12.70;1.00
1377;DHT22;682;52.502;13.488;2023-03-30T14:58:50;12.70;1.00
1377;DHT22;682;52.502;13.488;2023-03-30T15:01:23;12.80;1.00
1377;DHT22;682;52.502;13.488;2023-03-30T15:03:56;12.80;1.00
1377;DHT22;682;52.502;13.488;2023-03-30T15:06:24;12.90;1.00
1377;DHT22;682;52.502;13.488;2023-03-30T15:08:52;12.90;1.00
1377;DHT22;682;52.502;13.488;2023-03-30T15:11:26;12.90;1.00
1377;DHT22;682;52.502;13.488;2023-03-30T15:13:57;12.90;1.00
1377;DHT22;682;52.502;13.488;2023-03-30T15:16:30;12.90;1.00
1377;DHT22;682;52.502;13.488;2023-03-30T15:19:02;12.90;1.00
1377;DHT22;682;52.502;13.488;2023-03-30T15:21:34;12.90;1.00
1377;DHT22;682;52.502;13.488;2023-03-30T15:24:04;12.90;1.00
1377;DHT22;682;52.502;13.488;2023-03-30T15:26:34;12.80;1.00
1377;DHT22;682;52.502;13.488;2023-03-30T15:29:02;12.80;1.00
1377;DHT22;682;52.502;13.488;2023-03-30T15:31:31;12.80;1.00
1377;DHT22;682;52.502;13.488;2023-03-30T15:33:58;12.80;1.00
1377;DHT22;682;52.502;13.488;2023-03-30T15:36:35;12.70;1.00
1377;DHT22;682;52.502;13.488;2023-03-30T15:39:15;12.60;1.00
1377;DHT22;682;52.502;13.488;2023-03-30T15:41:46;12.50;1.00
1377;DHT22;682;52.502;13.488;2023-03-30T15:44:17;12.50;1.00
1377;DHT22;682;52.502;13.488;2023-03-30T15:46:49;12.50;1.00
1377;DHT22;682;52.502;13.488;2023-03-30T15:49:18;12.60;1.00
1377;DHT22;682;52.502;13.488;2023-03-30T15:51:50;12.50;1.00
1377;DHT22;682;52.502;13.488;2023-03-30T15:54:20;12.50;1.00
1377;DHT22;682;52.502;13.488;2023-03-30T15:56:55;12.50;1.00
1377;DHT22;682;52.502;13.488;2023-03-30T15:59:26;12.40;1.00
1377;DHT22;682;52.502;13.488;2023-03-30T16:01:55;12.40;1.00
1377;DHT22;682;52.502;13.488;2023-03-30T16:04:23;12.30;1.00
1377;DHT22;682;52.502;13.488;2023-03-30T16:06:50;12.30;1.00
1377;DHT22;682;52.502;13.488;2023-03-30T16:09:18;12.40;1.00
1377;DHT22;682;52.502;13.488;2023-03-30T16:11:46;12.40;1.00
1377;DHT22;682;52.502;13.488;2023-03-30T16:14:17;12.40;1.00
1377;DHT22;682;52.502;13.488;2023-03-30T16:16:45;12.50;1.00
1377;DHT22;682;52.502;13.488;2023-03-30T16:19:14;12.50;1.00
1377;DHT22;682;52.502;13.488;2023-03-30T16:21:42;12.50;1.00
1377;DHT22;682;52.502;13.488;2023-03-30T16:24:09;12.50;1.00
1377;DHT22;682;52.502;13.488;2023-03-30T16:26:36;12.50;1.00
1377;DHT22;682;52.502;13.488;2023-03-30T16:29:04;12.60;1.00
1377;DHT22;682;52.502;13.488;2023-03-30T16:31:34;12.70;1.00
1377;DHT22;682;52.502;13.488;2023-03-30T16:34:01;12.80;1.00
1377;DHT22;682;52.502;13.488;2023-03-30T16:36:28;12.90;1.00
1377;DHT22;682;52.502;13.488;2023-03-30T16:38:55;13.10;1.00
1377;DHT22;682;52.502;13.488;2023-03-30T16:41:22;13.20;1.00
1377;DHT22;682;52.502;13.488;2023-03-30T16:43:51;13.30;1.00
1377;DHT22;682;52.502;13.488;2023-03-30T16:46:19;13.30;1.00
1377;DHT22;682;52.502;13.488;2023-03-30T16:48:47;13.30;1.00
1377;DHT22;682;52.502;13.488;2023-03-30T16:51:15;13.30;1.00
1377;DHT22;682;52.502;13.488;2023-03-30T16:53:42;13.20;1.00
1377;DHT22;682;52.502;13.488;2023-03-30T16:56:14;13.10;1.00
1377;DHT22;682;52.502;13.488;2023-03-30T16:58:44;13.10;1.00
1377;DHT22;682;52.502;13.488;2023-03-30T17:01:13;13.20;1.00
1377;DHT22;682;52.502;13.488;2023-03-30T17:03:42;13.20;1.00
1377;DHT22;682;52.502;13.488;2023-03-30T17:06:11;13.20;1.00
1377;DHT22;682;52.502;13.488;2023-03-30T17:08:41;13.20;1.00
1377;DHT22;682;52.502;13.488;2023-03-30T17:11:09;13.30;1.00